sensor_id;sensor_type;location;lat;lon;timestamp;pressure;altitude;pressure_sealevel;temperature;humidity
11936;BME280;6027;48.576;9.180;2022-08-19T00:04:09;96461.47;;;20.94;100.00
11936;BME280;6027;48.576;9.180;2022-08-19T00:06:36;96475.59;;;20.80;100.00
11936;BME280;6027;48.576;9.180;2022-08-19T00:09:04;96469.53;;;20.62;100.00
11936;BME280;6027;48.576;9.180;2022-08-19T00:11:31;96467.34;;;20.59;100.00
11936;BME280;6027;48.576;9.180;2022-08-19T00:13:57;96466.94;;;20.73;100.00
11936;BME280;6027;48.576;9.180;2022-08-19T00:16:24;96469.56;;;20.67;100.00
11936;BME280;6027;48.576;9.180;2022-08-19T00:18:50;96467.69;;;20.68;100.00
11936;BME280;6027;48.576;9.180;2022-08-19T00:21:16;96458.81;;;20.67;100.00
11936;BME280;6027;48.576;9.180;2022-08-19T00:23:42;96459.31;;;20.64;100.00
11936;BME280;6027;48.576;9.180;2022-08-19T00:26:09;96455.56;;;20.65;100.00
11936;BME280;6027;48.576;9.180;2022-08-19T00:28:35;96451.75;;;20.61;100.00
11936;BME280;6027;48.576;9.180;2022-08-19T00:31:02;96434.56;;;20.62;100.00
11936;BME280;6027;48.576;9.180;2022-08-19T00:33:30;96425.97;;;20.65;100.00
11936;BME280;6027;48.576;9.180;2022-08-19T00:36:04;96431.41;;;20.71;100.00
11936;BME280;6027;48.576;9.180;2022-08-19T00:38:32;96438.97;;;20.74;100.00
11936;BME280;6027;48.576;9.180;2022-08-19T00:40:58;96435.66;;;20.66;100.00
11936;BME280;6027;48.576;9.180;2022-08-19T00:43:25;96450.94;;;20.61;100.00
11936;BME280;6027;48.576;9.180;2022-08-19T00:45:52;96454.44;;;20.61;100.00
11936;BME280;6027;48.576;9.180;2022-08-19T00:48:18;96469.25;;;20.59;100.00
11936;BME280;6027;48.576;9.180;2022-08-19T00:50:45;96456.06;;;20.57;100.00
11936;BME280;6027;48.576;9.180;2022-08-19T00:53:12;96460.50;;;20.47;100.00
11936;BME280;6027;48.576;9.180;2022-08-19T00:55:42;96457.00;;;20.46;100.00
11936;BME280;6027;48.576;9.180;2022-08-19T00:58:12;96459.75;;;20.51;100.00
11936;BME280;6027;48.576;9.180;2022-08-19T01:00:38;96461.00;;;20.44;100.00
11936;BME280;6027;48.576;9.180;2022-08-19T01:03:12;96463.16;;;20.42;100.00
11936;BME280;6027;48.576;9.180;2022-08-19T01:05:41;96460.69;;;20.40;100.00
11936;BME280;6027;48.576;9.180;2022-08-19T01:08:08;96459.53;;;20.31;100.00
11936;BME280;6027;48.576;9.180;2022-08-19T01:10:40;96445.38;;;20.14;100.00
11936;BME280;6027;48.576;9.180;2022-08-19T01:13:07;96447.13;;;20.03;100.00
11936;BME280;6027;48.576;9.180;2022-08-19T01:15:42;96451.78;;;19.86;100.00
11936;BME280;6027;48.576;9.180;2022-08-19T01:18:11;96448.09;;;19.92;100.00
11936;BME280;6027;48.576;9.180;2022-08-19T01:20:39;96448.97;;;19.97;100.00
11936;BME280;6027;48.576;9.180;2022-08-19T01:23:05;96447.22;;;19.86;100.00
11936;BME280;6027;48.576;9.180;2022-08-19T01:25:36;96436.03;;;19.94;100.00
11936;BME280;6027;48.576;9.180;2022-08-19T01:28:04;96435.34;;;19.82;100.00
11936;BME280;6027;48.576;9.180;2022-08-19T01:30:33;96433.09;;;19.74;100.00
11936;BME280;6027;48.576;9.180;2022-08-19T01:32:59;96437.41;;;19.75;100.00
11936;BME280;6027;48.576;9.180;2022-08-19T01:35:29;96438.66;;;19.67;100.00
11936;BME280;6027;48.576;9.180;2022-08-19T01:38:01;96437.28;;;19.65;100.00
11936;BME280;6027;48.576;9.180;2022-08-19T01:40:30;96434.31;;;19.61;100.00
11936;BME280;6027;48.576;9.180;2022-08-19T01:42:56;96440.50;;;19.62;100.00
11936;BME280;6027;48.576;9.180;2022-08-19T01:45:24;96439.41;;;19.63;100.00
11936;BME280;6027;48.576;9.180;2022-08-19T01:47:49;96441.03;;;19.64;100.00
11936;BME280;6027;48.576;9.180;2022-08-19T01:50:15;96436.19;;;19.61;100.00
11936;BME280;6027;48.576;9.180;2022-08-19T01:52:42;96446.97;;;19.66;100.00
11936;BME280;6027;48.576;9.180;2022-08-19T01:55:12;96437.66;;;19.52;100.00
11936;BME280;6027;48.576;9.180;2022-08-19T01:57:39;96439.19;;;19.48;100.00
11936;BME280;6027;48.576;9.180;2022-08-19T02:00:10;96446.06;;;19.39;100.00
11936;BME280;6027;48.576;9.180;2022-08-19T02:02:36;96436.19;;;19.22;100.00
11936;BME280;6027;48.576;9.180;2022-08-19T02:05:04;96432.28;;;19.13;100.00
11936;BME280;6027;48.576;9.180;2022-08-19T02:07:30;96436.69;;;19.03;100.00
11936;BME280;6027;48.576;9.180;2022-08-19T02:09:55;96425.44;;;19.06;100.00
11936;BME280;6027;48.576;9.180;2022-08-19T02:12:21;96431.00;;;18.99;100.00
11936;BME280;6027;48.576;9.180;2022-08-19T02:14:47;96427.59;;;18.87;100.00
11936;BME280;6027;48.576;9.180;2022-08-19T02:17:13;96445.47;;;18.98;100.00
11936;BME280;6027;48.576;9.180;2022-08-19T02:19:38;96435.34;;;18.83;100.00
11936;BME280;6027;48.576;9.180;2022-08-19T02:22:04;96445.72;;;18.80;100.00
11936;BME280;6027;48.576;9.180;2022-08-19T02:24:30;96439.81;;;18.78;100.00
11936;BME280;6027;48.576;9.180;2022-08-19T02:26:56;96445.81;;;18.85;100.00
11936;BME280;6027;48.576;9.180;2022-08-19T02:29:22;96437.91;;;18.95;100.00
11936;BME280;6027;48.576;9.180;2022-08-19T02:31:48;96430.53;;;19.02;100.00
11936;BME280;6027;48.576;9.180;2022-08-19T02:34:13;96423.28;;;19.03;100.00
11936;BME280;6027;48.576;9.180;2022-08-19T02:36:39;96427.88;;;19.07;100.00
11936;BME280;6027;48.576;9.180;2022-08-19T02:39:04;96420.34;;;19.04;100.00
11936;BME280;6027;48.576;9.180;2022-08-19T02:41:32;96421.66;;;19.02;100.00
11936;BME280;6027;48.576;9.180;2022-08-19T02:43:59;96422.38;;;18.97;100.00
11936;BME280;6027;48.576;9.180;2022-08-19T02:46:31;96410.84;;;18.96;100.00
11936;BME280;6027;48.576;9.180;2022-08-19T02:49:04;96416.34;;;19.07;100.00
11936;BME280;6027;48.576;9.180;2022-08-19T02:51:36;96407.06;;;19.14;100.00
11936;BME280;6027;48.576;9.180;2022-08-19T02:54:03;96412.59;;;19.08;100.00
11936;BME280;6027;48.576;9.180;2022-08-19T02:56:29;96417.22;;;19.12;100.00
11936;BME280;6027;48.576;9.180;2022-08-19T02:58:56;96419.91;;;19.12;100.00
11936;BME280;6027;48.576;9.180;2022-08-19T03:01:31;96419.78;;;19.02;100.00
11936;BME280;6027;48.576;9.180;2022-08-19T03:03:58;96430.53;;;18.85;100.00
11936;BME280;6027;48.576;9.180;2022-08-19T03:06:25;96428.81;;;18.79;100.00
11936;BME280;6027;48.576;9.180;2022-08-19T03:08:51;96433.47;;;18.84;100.00
11936;BME280;6027;48.576;9.180;2022-08-19T03:11:20;96438.41;;;18.92;100.00
11936;BME280;6027;48.576;9.180;2022-08-19T03:13:46;96432.38;;;19.02;100.00
11936;BME280;6027;48.576;9.180;2022-08-19T03:16:15;96444.81;;;19.08;100.00
11936;BME280;6027;48.576;9.180;2022-08-19T03:18:41;96435.78;;;19.14;100.00
11936;BME280;6027;48.576;9.180;2022-08-19T03:21:07;96428.22;;;19.11;100.00
11936;BME280;6027;48.576;9.180;2022-08-19T03:23:33;96425.38;;;19.17;100.00
11936;BME280;6027;48.576;9.180;2022-08-19T03:25:59;96429.75;;;19.23;100.00
11936;BME280;6027;48.576;9.180;2022-08-19T03:28:30;96429.81;;;19.28;100.00
11936;BME280;6027;48.576;9.180;2022-08-19T03:33:25;96431.09;;;19.26;100.00
11936;BME280;6027;48.576;9.180;2022-08-19T03:36:18;96436.31;;;19.32;100.00
11936;BME280;6027;48.576;9.180;2022-08-19T03:38:48;96438.00;;;19.39;100.00
11936;BME280;6027;48.576;9.180;2022-08-19T03:41:19;96422.72;;;19.39;100.00
11936;BME280;6027;48.576;9.180;2022-08-19T03:43:46;96420.06;;;19.44;100.00
11936;BME280;6027;48.576;9.180;2022-08-19T03:46:15;96428.94;;;19.45;100.00
11936;BME280;6027;48.576;9.180;2022-08-19T03:48:42;96429.47;;;19.42;100.00
11936;BME280;6027;48.576;9.180;2022-08-19T03:51:16;96437.94;;;19.33;100.00
11936;BME280;6027;48.576;9.180;2022-08-19T03:53:42;96439.31;;;19.36;100.00
11936;BME280;6027;48.576;9.180;2022-08-19T03:56:09;96448.78;;;19.44;100.00
11936;BME280;6027;48.576;9.180;2022-08-19T03:58:36;96450.97;;;19.47;100.00
11936;BME280;6027;48.576;9.180;2022-08-19T04:01:10;96450.41;;;19.45;100.00
11936;BME280;6027;48.576;9.180;2022-08-19T04:03:37;96443.69;;;19.42;100.00
11936;BME280;6027;48.576;9.180;2022-08-19T04:06:15;96447.19;;;19.43;100.00
11936;BME280;6027;48.576;9.180;2022-08-19T04:08:41;96441.81;;;19.43;100.00
11936;BME280;6027;48.576;9.180;2022-08-19T04:11:13;96441.06;;;19.47;100.00
11936;BME280;6027;48.576;9.180;2022-08-19T04:13:39;96446.38;;;19.42;100.00
11936;BME280;6027;48.576;9.180;2022-08-19T04:16:06;96436.94;;;19.40;100.00
11936;BME280;6027;48.576;9.180;2022-08-19T04:18:35;96445.00;;;19.40;100.00
11936;BME280;6027;48.576;9.180;2022-08-19T04:21:01;96439.31;;;19.36;100.00
11936;BME280;6027;48.576;9.180;2022-08-19T04:23:27;96442.56;;;19.38;100.00
11936;BME280;6027;48.576;9.180;2022-08-19T04:25:56;96430.63;;;19.29;100.00
11936;BME280;6027;48.576;9.180;2022-08-19T04:28:22;96425.88;;;19.36;100.00
11936;BME280;6027;48.576;9.180;2022-08-19T04:30:50;96430.44;;;19.36;100.00
11936;BME280;6027;48.576;9.180;2022-08-19T04:33:18;96439.31;;;19.36;100.00
11936;BME280;6027;48.576;9.180;2022-08-19T04:35:47;96433.69;;;19.38;100.00
11936;BME280;6027;48.576;9.180;2022-08-19T04:38:15;96437.34;;;19.31;100.00
11936;BME280;6027;48.576;9.180;2022-08-19T04:40:47;96440.63;;;19.33;100.00
11936;BME280;6027;48.576;9.180;2022-08-19T04:43:32;96439.09;;;19.21;100.00
11936;BME280;6027;48.576;9.180;2022-08-19T04:45:58;96437.16;;;19.16;100.00
11936;BME280;6027;48.576;9.180;2022-08-19T04:48:23;96438.47;;;19.14;100.00
11936;BME280;6027;48.576;9.180;2022-08-19T04:50:53;96441.22;;;19.19;100.00
11936;BME280;6027;48.576;9.180;2022-08-19T04:53:32;96441.78;;;19.21;100.00
11936;BME280;6027;48.576;9.180;2022-08-19T04:55:59;96445.59;;;19.25;100.00
11936;BME280;6027;48.576;9.180;2022-08-19T04:58:27;96450.13;;;19.24;100.00
11936;BME280;6027;48.576;9.180;2022-08-19T05:00:53;96449.59;;;19.22;100.00
11936;BME280;6027;48.576;9.180;2022-08-19T05:03:19;96465.47;;;19.24;100.00
11936;BME280;6027;48.576;9.180;2022-08-19T05:05:46;96474.88;;;19.26;100.00
11936;BME280;6027;48.576;9.180;2022-08-19T05:08:18;96476.72;;;19.26;100.00
11936;BME280;6027;48.576;9.180;2022-08-19T05:10:50;96488.03;;;19.28;100.00
11936;BME280;6027;48.576;9.180;2022-08-19T05:13:18;96493.34;;;19.23;100.00
11936;BME280;6027;48.576;9.180;2022-08-19T05:15:45;96500.59;;;19.22;100.00
11936;BME280;6027;48.576;9.180;2022-08-19T05:18:18;96498.44;;;19.24;100.00
11936;BME280;6027;48.576;9.180;2022-08-19T05:21:06;96508.66;;;19.22;100.00
11936;BME280;6027;48.576;9.180;2022-08-19T05:23:51;96522.69;;;19.29;100.00
11936;BME280;6027;48.576;9.180;2022-08-19T05:26:16;96529.94;;;19.29;100.00
11936;BME280;6027;48.576;9.180;2022-08-19T05:28:42;96537.97;;;19.29;100.00
11936;BME280;6027;48.576;9.180;2022-08-19T05:31:07;96538.78;;;19.29;100.00
11936;BME280;6027;48.576;9.180;2022-08-19T05:33:33;96538.56;;;19.14;100.00
11936;BME280;6027;48.576;9.180;2022-08-19T05:35:58;96533.44;;;19.13;100.00
11936;BME280;6027;48.576;9.180;2022-08-19T05:38:24;96526.78;;;18.98;100.00
11936;BME280;6027;48.576;9.180;2022-08-19T05:40:51;96529.53;;;18.87;100.00
11936;BME280;6027;48.576;9.180;2022-08-19T05:43:16;96535.31;;;18.95;100.00
11936;BME280;6027;48.576;9.180;2022-08-19T05:45:43;96536.47;;;19.00;100.00
11936;BME280;6027;48.576;9.180;2022-08-19T05:48:10;96540.28;;;19.04;100.00
11936;BME280;6027;48.576;9.180;2022-08-19T05:50:37;96527.16;;;19.07;100.00
11936;BME280;6027;48.576;9.180;2022-08-19T05:53:03;96530.44;;;19.09;100.00
11936;BME280;6027;48.576;9.180;2022-08-19T05:55:29;96528.78;;;19.08;100.00
11936;BME280;6027;48.576;9.180;2022-08-19T05:57:54;96528.97;;;19.02;100.00
11936;BME280;6027;48.576;9.180;2022-08-19T06:00:20;96533.28;;;19.03;100.00
11936;BME280;6027;48.576;9.180;2022-08-19T06:02:45;96532.47;;;19.02;100.00
11936;BME280;6027;48.576;9.180;2022-08-19T06:05:11;96536.84;;;19.08;100.00
11936;BME280;6027;48.576;9.180;2022-08-19T06:07:38;96535.06;;;19.14;100.00
11936;BME280;6027;48.576;9.180;2022-08-19T06:10:06;96537.03;;;19.18;100.00
11936;BME280;6027;48.576;9.180;2022-08-19T06:12:34;96539.72;;;19.18;100.00
11936;BME280;6027;48.576;9.180;2022-08-19T06:15:07;96539.47;;;19.20;100.00
11936;BME280;6027;48.576;9.180;2022-08-19T06:17:33;96535.72;;;19.21;100.00
11936;BME280;6027;48.576;9.180;2022-08-19T06:20:00;96544.72;;;19.31;100.00
11936;BME280;6027;48.576;9.180;2022-08-19T06:22:27;96539.44;;;19.37;100.00
11936;BME280;6027;48.576;9.180;2022-08-19T06:24:54;96539.69;;;19.35;100.00
11936;BME280;6027;48.576;9.180;2022-08-19T06:27:20;96546.69;;;19.36;100.00
11936;BME280;6027;48.576;9.180;2022-08-19T06:29:45;96541.06;;;19.38;100.00
11936;BME280;6027;48.576;9.180;2022-08-19T06:32:14;96542.22;;;19.42;100.00
11936;BME280;6027;48.576;9.180;2022-08-19T06:34:42;96543.09;;;19.30;100.00
11936;BME280;6027;48.576;9.180;2022-08-19T06:37:08;96545.53;;;19.32;100.00
11936;BME280;6027;48.576;9.180;2022-08-19T06:39:36;96541.00;;;19.32;100.00
11936;BME280;6027;48.576;9.180;2022-08-19T06:42:05;96536.59;;;19.26;100.00
11936;BME280;6027;48.576;9.180;2022-08-19T06:44:33;96546.53;;;19.26;100.00
11936;BME280;6027;48.576;9.180;2022-08-19T06:47:01;96553.22;;;19.23;100.00
11936;BME280;6027;48.576;9.180;2022-08-19T06:49:27;96550.59;;;19.28;100.00
11936;BME280;6027;48.576;9.180;2022-08-19T06:51:56;96554.91;;;19.29;100.00
11936;BME280;6027;48.576;9.180;2022-08-19T06:54:22;96550.09;;;19.31;100.00
11936;BME280;6027;48.576;9.180;2022-08-19T06:56:48;96547.66;;;19.30;100.00
11936;BME280;6027;48.576;9.180;2022-08-19T07:01:44;96551.16;;;19.30;100.00
11936;BME280;6027;48.576;9.180;2022-08-19T07:04:17;96549.53;;;19.29;100.00
11936;BME280;6027;48.576;9.180;2022-08-19T07:06:43;96556.03;;;19.33;100.00
11936;BME280;6027;48.576;9.180;2022-08-19T07:09:13;96554.03;;;19.24;100.00
11936;BME280;6027;48.576;9.180;2022-08-19T07:11:44;96555.56;;;19.20;100.00
11936;BME280;6027;48.576;9.180;2022-08-19T07:14:10;96554.28;;;19.22;100.00
11936;BME280;6027;48.576;9.180;2022-08-19T07:16:35;96549.44;;;19.24;100.00
11936;BME280;6027;48.576;9.180;2022-08-19T07:19:01;96559.44;;;19.29;100.00
11936;BME280;6027;48.576;9.180;2022-08-19T07:21:28;96561.91;;;19.30;100.00
11936;BME280;6027;48.576;9.180;2022-08-19T07:23:55;96556.38;;;19.37;100.00
11936;BME280;6027;48.576;9.180;2022-08-19T07:26:30;96556.13;;;19.39;100.00
11936;BME280;6027;48.576;9.180;2022-08-19T07:28:57;96561.00;;;19.42;100.00
11936;BME280;6027;48.576;9.180;2022-08-19T07:31:25;96550.50;;;19.40;100.00
11936;BME280;6027;48.576;9.180;2022-08-19T07:33:53;96553.44;;;19.39;100.00
11936;BME280;6027;48.576;9.180;2022-08-19T07:36:24;96556.63;;;19.36;100.00
11936;BME280;6027;48.576;9.180;2022-08-19T07:38:51;96563.59;;;19.37;100.00
11936;BME280;6027;48.576;9.180;2022-08-19T07:41:24;96560.44;;;19.40;100.00
11936;BME280;6027;48.576;9.180;2022-08-19T07:43:51;96565.81;;;19.40;100.00
11936;BME280;6027;48.576;9.180;2022-08-19T07:46:17;96570.84;;;19.36;100.00
11936;BME280;6027;48.576;9.180;2022-08-19T07:48:44;96562.22;;;19.34;100.00
11936;BME280;6027;48.576;9.180;2022-08-19T07:51:15;96561.56;;;19.44;100.00
11936;BME280;6027;48.576;9.180;2022-08-19T07:53:41;96566.91;;;19.44;100.00
11936;BME280;6027;48.576;9.180;2022-08-19T07:56:08;96563.03;;;19.35;100.00
11936;BME280;6027;48.576;9.180;2022-08-19T07:58:38;96556.63;;;19.36;100.00
11936;BME280;6027;48.576;9.180;2022-08-19T08:01:05;96566.78;;;19.33;100.00
11936;BME280;6027;48.576;9.180;2022-08-19T08:03:31;96565.97;;;19.33;100.00
11936;BME280;6027;48.576;9.180;2022-08-19T08:06:15;96571.25;;;19.28;100.00
11936;BME280;6027;48.576;9.180;2022-08-19T08:09:00;96579.53;;;19.26;100.00
11936;BME280;6027;48.576;9.180;2022-08-19T08:11:38;96572.63;;;19.30;100.00
11936;BME280;6027;48.576;9.180;2022-08-19T08:14:04;96573.53;;;19.19;100.00
11936;BME280;6027;48.576;9.180;2022-08-19T08:16:36;96574.69;;;19.23;100.00
11936;BME280;6027;48.576;9.180;2022-08-19T08:19:04;96568.66;;;19.16;100.00
11936;BME280;6027;48.576;9.180;2022-08-19T08:21:31;96575.00;;;19.10;100.00
11936;BME280;6027;48.576;9.180;2022-08-19T08:23:57;96567.19;;;19.09;100.00
11936;BME280;6027;48.576;9.180;2022-08-19T08:26:23;96567.75;;;19.11;100.00
11936;BME280;6027;48.576;9.180;2022-08-19T08:28:48;96582.75;;;19.23;100.00
11936;BME280;6027;48.576;9.180;2022-08-19T08:31:15;96574.03;;;19.16;100.00
11936;BME280;6027;48.576;9.180;2022-08-19T08:33:40;96563.78;;;19.13;100.00
11936;BME280;6027;48.576;9.180;2022-08-19T08:36:08;96572.53;;;19.09;100.00
11936;BME280;6027;48.576;9.180;2022-08-19T08:38:36;96576.84;;;19.10;100.00
11936;BME280;6027;48.576;9.180;2022-08-19T08:41:11;96576.00;;;19.21;100.00
11936;BME280;6027;48.576;9.180;2022-08-19T08:43:46;96574.41;;;19.25;100.00
11936;BME280;6027;48.576;9.180;2022-08-19T08:46:28;96580.94;;;19.29;100.00
11936;BME280;6027;48.576;9.180;2022-08-19T08:52:25;96583.47;;;19.19;100.00
11936;BME280;6027;48.576;9.180;2022-08-19T08:55:00;96587.53;;;19.21;100.00
11936;BME280;6027;48.576;9.180;2022-08-19T08:57:48;96588.66;;;19.25;100.00
11936;BME280;6027;48.576;9.180;2022-08-19T09:00:34;96585.16;;;19.25;100.00
11936;BME280;6027;48.576;9.180;2022-08-19T09:03:02;96589.72;;;19.24;100.00
11936;BME280;6027;48.576;9.180;2022-08-19T09:11:18;96594.84;;;19.26;100.00
11936;BME280;6027;48.576;9.180;2022-08-19T09:16:30;96599.97;;;19.27;100.00
11936;BME280;6027;48.576;9.180;2022-08-19T09:19:01;96601.09;;;19.31;100.00
11936;BME280;6027;48.576;9.180;2022-08-19T09:21:27;96604.13;;;19.35;100.00
11936;BME280;6027;48.576;9.180;2022-08-19T09:23:53;96606.47;;;19.31;100.00
11936;BME280;6027;48.576;9.180;2022-08-19T09:26:21;96602.50;;;19.34;100.00
11936;BME280;6027;48.576;9.180;2022-08-19T09:28:48;96604.84;;;19.30;100.00
11936;BME280;6027;48.576;9.180;2022-08-19T09:31:18;96604.84;;;19.30;100.00
11936;BME280;6027;48.576;9.180;2022-08-19T09:33:44;96606.97;;;19.28;100.00
11936;BME280;6027;48.576;9.180;2022-08-19T09:36:12;96614.84;;;19.35;100.00
11936;BME280;6027;48.576;9.180;2022-08-19T09:38:39;96609.81;;;19.39;100.00
11936;BME280;6027;48.576;9.180;2022-08-19T09:41:12;96608.75;;;19.40;100.00
11936;BME280;6027;48.576;9.180;2022-08-19T09:43:40;96612.50;;;19.39;100.00
11936;BME280;6027;48.576;9.180;2022-08-19T09:46:07;96614.03;;;19.35;100.00
11936;BME280;6027;48.576;9.180;2022-08-19T09:48:40;96613.13;;;19.29;100.00
11936;BME280;6027;48.576;9.180;2022-08-19T09:51:15;96609.63;;;19.28;100.00
11936;BME280;6027;48.576;9.180;2022-08-19T09:53:44;96615.91;;;19.34;100.00
11936;BME280;6027;48.576;9.180;2022-08-19T09:56:11;96614.03;;;19.35;100.00
11936;BME280;6027;48.576;9.180;2022-08-19T09:58:37;96612.41;;;19.33;100.00
11936;BME280;6027;48.576;9.180;2022-08-19T10:01:04;96613.97;;;19.29;100.00
11936;BME280;6027;48.576;9.180;2022-08-19T10:03:31;96625.25;;;19.31;100.00
11936;BME280;6027;48.576;9.180;2022-08-19T10:05:59;96615.91;;;19.17;100.00
11936;BME280;6027;48.576;9.180;2022-08-19T10:08:30;96619.66;;;19.16;100.00
11936;BME280;6027;48.576;9.180;2022-08-19T10:10:57;96620.22;;;19.18;100.00
11936;BME280;6027;48.576;9.180;2022-08-19T10:13:24;96616.97;;;19.16;100.00
11936;BME280;6027;48.576;9.180;2022-08-19T10:15:56;96622.00;;;19.13;100.00
11936;BME280;6027;48.576;9.180;2022-08-19T10:18:27;96620.78;;;19.20;100.00
11936;BME280;6027;48.576;9.180;2022-08-19T10:21:03;96623.38;;;19.15;100.00
11936;BME280;6027;48.576;9.180;2022-08-19T10:23:32;96624.44;;;19.14;100.00
11936;BME280;6027;48.576;9.180;2022-08-19T10:26:00;96626.66;;;19.17;100.00
11936;BME280;6027;48.576;9.180;2022-08-19T10:28:28;96624.59;;;19.08;100.00
11936;BME280;6027;48.576;9.180;2022-08-19T10:30:54;96618.97;;;19.09;100.00
11936;BME280;6027;48.576;9.180;2022-08-19T10:33:19;96622.47;;;19.10;100.00
11936;BME280;6027;48.576;9.180;2022-08-19T10:35:45;96613.47;;;19.16;100.00
11936;BME280;6027;48.576;9.180;2022-08-19T10:38:12;96610.78;;;19.16;100.00
11936;BME280;6027;48.576;9.180;2022-08-19T10:40:37;96615.66;;;19.19;100.00
11936;BME280;6027;48.576;9.180;2022-08-19T10:43:03;96620.31;;;19.23;100.00
11936;BME280;6027;48.576;9.180;2022-08-19T10:45:28;96619.81;;;19.26;100.00
11936;BME280;6027;48.576;9.180;2022-08-19T10:47:54;96618.13;;;19.20;100.00
11936;BME280;6027;48.576;9.180;2022-08-19T10:50:20;96624.06;;;19.22;100.00
11936;BME280;6027;48.576;9.180;2022-08-19T10:53:06;96615.34;;;19.15;100.00
11936;BME280;6027;48.576;9.180;2022-08-19T10:55:34;96616.22;;;19.04;100.00
11936;BME280;6027;48.576;9.180;2022-08-19T10:58:19;96612.97;;;19.02;100.00
11936;BME280;6027;48.576;9.180;2022-08-19T11:00:54;96614.44;;;19.10;100.00
11936;BME280;6027;48.576;9.180;2022-08-19T11:03:20;96610.94;;;19.09;100.00
11936;BME280;6027;48.576;9.180;2022-08-19T11:05:46;96609.97;;;19.15;100.00
11936;BME280;6027;48.576;9.180;2022-08-19T11:08:11;96606.84;;;19.07;100.00
11936;BME280;6027;48.576;9.180;2022-08-19T11:10:41;96615.25;;;19.10;100.00
11936;BME280;6027;48.576;9.180;2022-08-19T11:13:07;96603.94;;;19.08;100.00
11936;BME280;6027;48.576;9.180;2022-08-19T11:15:33;96616.38;;;19.14;100.00
11936;BME280;6027;48.576;9.180;2022-08-19T11:17:59;96607.91;;;19.06;100.00
11936;BME280;6027;48.576;9.180;2022-08-19T11:20:24;96609.78;;;19.05;100.00
11936;BME280;6027;48.576;9.180;2022-08-19T11:22:52;96614.59;;;19.03;100.00
11936;BME280;6027;48.576;9.180;2022-08-19T11:25:18;96615.72;;;19.07;100.00
11936;BME280;6027;48.576;9.180;2022-08-19T11:27:43;96607.75;;;19.12;100.00
11936;BME280;6027;48.576;9.180;2022-08-19T11:30:11;96609.53;;;19.07;100.00
11936;BME280;6027;48.576;9.180;2022-08-19T11:32:38;96604.50;;;19.10;100.00
11936;BME280;6027;48.576;9.180;2022-08-19T11:35:03;96609.78;;;19.05;100.00
11936;BME280;6027;48.576;9.180;2022-08-19T11:37:29;96611.16;;;19.08;100.00
11936;BME280;6027;48.576;9.180;2022-08-19T11:39:55;96615.97;;;19.06;100.00
11936;BME280;6027;48.576;9.180;2022-08-19T11:42:20;96592.94;;;18.93;100.00
11936;BME280;6027;48.576;9.180;2022-08-19T11:45:04;96616.22;;;19.04;100.00
11936;BME280;6027;48.576;9.180;2022-08-19T11:47:30;96620.38;;;19.12;100.00
11936;BME280;6027;48.576;9.180;2022-08-19T11:49:56;96619.78;;;19.10;100.00
11936;BME280;6027;48.576;9.180;2022-08-19T11:52:22;96612.97;;;19.02;100.00
11936;BME280;6027;48.576;9.180;2022-08-19T11:54:48;96611.50;;;19.11;100.00
11936;BME280;6027;48.576;9.180;2022-08-19T11:57:13;96611.50;;;19.11;100.00
11936;BME280;6027;48.576;9.180;2022-08-19T11:59:42;96608.25;;;19.09;100.00
11936;BME280;6027;48.576;9.180;2022-08-19T12:02:07;96603.22;;;19.13;100.00
11936;BME280;6027;48.576;9.180;2022-08-19T12:04:34;96608.47;;;19.08;100.00
11936;BME280;6027;48.576;9.180;2022-08-19T12:06:59;96608.09;;;19.16;100.00
11936;BME280;6027;48.576;9.180;2022-08-19T12:09:25;96604.34;;;19.17;100.00
11936;BME280;6027;48.576;9.180;2022-08-19T12:11:51;96610.63;;;19.22;100.00
11936;BME280;6027;48.576;9.180;2022-08-19T12:14:16;96610.94;;;19.26;100.00
11936;BME280;6027;48.576;9.180;2022-08-19T12:16:44;96613.72;;;19.31;100.00
11936;BME280;6027;48.576;9.180;2022-08-19T12:19:11;96617.69;;;19.28;100.00
11936;BME280;6027;48.576;9.180;2022-08-19T12:21:36;96607.03;;;19.17;100.00
11936;BME280;6027;48.576;9.180;2022-08-19T12:24:04;96610.63;;;19.22;100.00
11936;BME280;6027;48.576;9.180;2022-08-19T12:26:30;96611.03;;;19.14;100.00
11936;BME280;6027;48.576;9.180;2022-08-19T12:28:57;96604.50;;;19.10;100.00
11936;BME280;6027;48.576;9.180;2022-08-19T12:31:26;96612.97;;;19.02;100.00
11936;BME280;6027;48.576;9.180;2022-08-19T12:33:51;96602.03;;;18.92;100.00
11936;BME280;6027;48.576;9.180;2022-08-19T12:36:17;96601.56;;;18.95;100.00
11936;BME280;6027;48.576;9.180;2022-08-19T12:38:43;96592.47;;;18.96;100.00
11936;BME280;6027;48.576;9.180;2022-08-19T12:41:13;96607.09;;;19.05;100.00
11936;BME280;6027;48.576;9.180;2022-08-19T12:43:38;96602.72;;;19.16;100.00
11936;BME280;6027;48.576;9.180;2022-08-19T12:46:05;96608.56;;;19.13;100.00
11936;BME280;6027;48.576;9.180;2022-08-19T12:48:32;96601.81;;;19.10;100.00
11936;BME280;6027;48.576;9.180;2022-08-19T12:50:58;96599.72;;;19.12;100.00
11936;BME280;6027;48.576;9.180;2022-08-19T12:53:23;96605.41;;;19.16;100.00
11936;BME280;6027;48.576;9.180;2022-08-19T12:55:59;96607.63;;;19.19;100.00
11936;BME280;6027;48.576;9.180;2022-08-19T12:58:25;96619.75;;;19.21;100.00
11936;BME280;6027;48.576;9.180;2022-08-19T13:00:52;96616.63;;;19.29;100.00
11936;BME280;6027;48.576;9.180;2022-08-19T13:03:17;96626.75;;;19.22;100.00
11936;BME280;6027;48.576;9.180;2022-08-19T13:05:43;96620.94;;;19.14;100.00
11936;BME280;6027;48.576;9.180;2022-08-19T13:08:08;96616.47;;;19.19;100.00
11936;BME280;6027;48.576;9.180;2022-08-19T13:10:35;96627.03;;;19.26;100.00
11936;BME280;6027;48.576;9.180;2022-08-19T13:13:06;96628.91;;;19.25;100.00
11936;BME280;6027;48.576;9.180;2022-08-19T13:15:34;96625.69;;;19.40;100.00
11936;BME280;6027;48.576;9.180;2022-08-19T13:18:00;96625.84;;;19.33;100.00
11936;BME280;6027;48.576;9.180;2022-08-19T13:20:26;96621.66;;;19.26;100.00
11936;BME280;6027;48.576;9.180;2022-08-19T13:22:52;96625.50;;;19.30;100.00
11936;BME280;6027;48.576;9.180;2022-08-19T13:25:18;96620.69;;;19.15;100.00